Bouquet, Argentina
Current Conditions -  °F | °C
As of 5:00 PM on Friday 26 Dec 2014 (Local Time) from SAAR Reporting Station
Thunderstorm Thunderstorm  
Wind Chill: 73°   Ceiling: 5000
Heat Index: 73°   Visibility: 6mi
Dew Point: 66°   Wind: 9mph
Humidity: 78%   Direction: 90°E
Pressure: 29.88"   Gusts: NA
Location:  32.42°S, 61.9°W
Report Text: SAAR 262000Z 09008KT 9000 TSRA SCT025FEW050CB OVC050 23/19 Q1012
Loading
Personal Weather Stations






























Interactive Weather Map New forecast layout! Learn more

10-Day Weather Forecast

Advertisements
Track Severe Weather on mobile